Time;durP1;ratioP1;P1;durP2;ratioP2;P2;SDS_P1;SDS_P2;PMS_P1;PMS_P2;Temp;Humidity;BMP_temperature;BMP_pressure;BME280_temperature;BME280_humidity;BME280_pressure;Samples;Min_cycle;Max_cycle;Signal;HPM_P1;HPM_P2
2021/09/15 00:02:18;;;;;;;16.20;11.47;;;20.20;99.90;;;;;;5070542;28;20295;-79
2021/09/15 00:04:45;;;;;;;14.30;10.93;;;20.20;99.90;;;;;;5072825;28;20200;-80
2021/09/15 00:07:12;;;;;;;16.63;12.07;;;20.10;99.90;;;;;;5073830;28;20238;-80
2021/09/15 00:09:39;;;;;;;16.10;10.83;;;20.20;99.90;;;;;;5072733;28;20199;-79
2021/09/15 00:12:06;;;;;;;16.37;11.47;;;20.20;99.90;;;;;;5071674;28;20294;-79
2021/09/15 00:14:33;;;;;;;17.80;11.70;;;20.30;99.90;;;;;;5068322;28;20199;-79
2021/09/15 00:17:01;;;;;;;17.53;11.27;;;20.30;99.90;;;;;;5062469;28;20566;-80
2021/09/15 00:19:28;;;;;;;18.93;11.60;;;20.30;99.90;;;;;;5067419;28;20302;-79
2021/09/15 00:21:57;;;;;;;17.90;11.97;;;20.40;99.90;;;;;;5070385;28;20203;-80
2021/09/15 00:24:24;;;;;;;31.33;12.57;;;20.40;99.90;;;;;;5067038;28;20298;-79
2021/09/15 00:26:51;;;;;;;18.63;11.80;;;20.40;99.90;;;;;;5053752;28;20223;-78
2021/09/15 00:29:18;;;;;;;22.17;12.10;;;20.40;99.90;;;;;;5053465;28;20243;-79
2021/09/15 00:31:45;;;;;;;16.07;11.13;;;20.40;99.90;;;;;;5054181;28;20203;-79
2021/09/15 00:34:13;;;;;;;18.03;12.03;;;20.40;99.90;;;;;;5053141;28;20212;-79
2021/09/15 00:36:40;;;;;;;18.23;11.67;;;20.40;99.90;;;;;;5053944;28;20219;-79
2021/09/15 00:39:06;;;;;;;15.93;11.53;;;20.40;99.90;;;;;;5053241;28;20200;-80
2021/09/15 00:41:34;;;;;;;15.67;10.80;;;20.40;99.90;;;;;;5053465;28;20295;-80
2021/09/15 00:44:03;;;;;;;17.80;11.43;;;20.40;99.90;;;;;;5053090;28;20226;-79
2021/09/15 00:46:30;;;;;;;21.25;12.10;;;20.40;99.90;;;;;;5053303;28;20204;-79
2021/09/15 00:48:57;;;;;;;18.27;12.03;;;20.40;99.90;;;;;;5053254;28;20295;-79
2021/09/15 00:51:26;;;;;;;19.97;11.80;;;20.30;99.90;;;;;;5053697;28;20286;-79
2021/09/15 00:53:53;;;;;;;16.90;12.00;;;20.30;99.90;;;;;;5053514;28;20637;-80
2021/09/15 00:56:20;;;;;;;19.00;11.93;;;20.40;99.90;;;;;;5053350;28;20224;-79
2021/09/15 00:58:47;;;;;;;16.93;11.97;;;20.40;99.90;;;;;;5053219;28;20215;-79
2021/09/15 01:01:13;;;;;;;18.23;12.38;;;20.50;99.90;;;;;;5058868;28;20231;-79
2021/09/15 01:03:40;;;;;;;17.57;12.67;;;20.50;99.90;;;;;;5072847;28;20243;-79
2021/09/15 01:06:08;;;;;;;18.97;12.27;;;20.50;99.90;;;;;;5072598;28;20285;-79
2021/09/15 01:08:36;;;;;;;21.75;12.63;;;20.50;99.90;;;;;;5072592;28;20211;-79
2021/09/15 01:11:03;;;;;;;20.38;12.73;;;20.50;99.90;;;;;;5066453;28;20211;-79
2021/09/15 01:13:31;;;;;;;17.07;12.17;;;20.40;99.90;;;;;;5076462;28;20662;-80
2021/09/15 01:15:59;;;;;;;18.63;13.23;;;20.50;99.90;;;;;;5063144;28;20223;-79
2021/09/15 01:18:26;;;;;;;18.70;12.00;;;20.50;99.90;;;;;;5076429;28;20203;-80
2021/09/15 01:20:55;;;;;;;17.38;12.02;;;20.50;99.90;;;;;;5076588;28;20298;-79
2021/09/15 01:23:22;;;;;;;19.47;13.03;;;20.60;99.90;;;;;;5076661;28;20286;-79
2021/09/15 01:25:49;;;;;;;20.40;13.17;;;20.60;99.90;;;;;;5076568;28;20731;-79
2021/09/15 01:28:16;;;;;;;19.43;12.20;;;20.60;99.90;;;;;;5075998;28;20660;-79
2021/09/15 01:30:44;;;;;;;19.73;12.37;;;20.60;99.90;;;;;;5076575;28;20735;-79
2021/09/15 01:33:12;;;;;;;19.48;12.73;;;20.60;99.90;;;;;;5076041;28;20302;-79
2021/09/15 01:35:40;;;;;;;18.10;12.73;;;20.60;99.90;;;;;;5076601;28;20249;-80
2021/09/15 01:38:09;;;;;;;18.35;12.45;;;20.60;99.90;;;;;;5076161;28;20294;-79
2021/09/15 01:40:36;;;;;;;20.40;12.77;;;20.60;99.90;;;;;;5076531;28;20210;-79
2021/09/15 01:43:03;;;;;;;18.63;12.73;;;20.70;99.90;;;;;;5076094;28;20203;-79
2021/09/15 01:45:29;;;;;;;20.97;13.77;;;20.70;99.90;;;;;;5076113;28;20399;-79
2021/09/15 01:47:56;;;;;;;24.47;13.23;;;20.60;99.90;;;;;;5076238;28;20369;-79
2021/09/15 01:50:23;;;;;;;23.07;13.10;;;20.60;99.90;;;;;;5075995;28;20682;-79
2021/09/15 01:52:50;;;;;;;21.47;13.60;;;20.30;99.90;;;;;;5075820;28;20397;-79
2021/09/15 01:55:23;;;;;;;20.87;13.37;;;20.40;99.90;;;;;;5076409;28;20209;-79
2021/09/15 01:57:50;;;;;;;22.80;13.63;;;20.30;99.90;;;;;;5082117;28;20223;-80
2021/09/15 02:00:17;;;;;;;24.70;14.27;;;20.20;99.90;;;;;;5082002;28;20294;-80
2021/09/15 02:02:45;;;;;;;26.07;13.93;;;20.20;99.90;;;;;;5075697;28;20203;-79
2021/09/15 02:05:12;;;;;;;33.00;14.70;;;20.10;99.90;;;;;;5075957;28;20207;-79
2021/09/15 02:07:39;;;;;;;24.43;15.30;;;20.00;99.90;;;;;;5075271;28;20206;-79
2021/09/15 02:10:10;;;;;;;25.77;14.83;;;20.10;99.90;;;;;;5075681;28;20540;-80
2021/09/15 02:12:39;;;;;;;27.40;16.60;;;20.00;99.90;;;;;;5075510;28;20310;-79
2021/09/15 02:15:07;;;;;;;25.73;14.43;;;20.00;99.90;;;;;;5075865;28;20207;-80
2021/09/15 02:17:35;;;;;;;27.00;15.63;;;19.80;99.90;;;;;;5075431;28;20581;-78
2021/09/15 02:20:02;;;;;;;21.13;14.57;;;19.80;99.90;;;;;;5075300;28;20200;-79
2021/09/15 02:22:28;;;;;;;21.83;13.90;;;19.80;99.90;;;;;;5074439;28;20594;-79
2021/09/15 02:24:55;;;;;;;24.50;14.73;;;19.80;99.90;;;;;;5075261;28;20632;-79
2021/09/15 02:27:22;;;;;;;25.73;15.47;;;19.80;99.90;;;;;;5075486;28;20621;-79
2021/09/15 02:29:50;;;;;;;28.67;15.40;;;19.70;99.90;;;;;;5075242;28;20657;-79
2021/09/15 02:32:17;;;;;;;28.10;15.83;;;19.70;99.90;;;;;;5074195;28;20294;-79
2021/09/15 02:34:46;;;;;;;23.67;14.90;;;19.70;99.90;;;;;;5075389;28;20238;-80
2021/09/15 02:37:12;;;;;;;24.10;14.47;;;19.70;99.90;;;;;;5075332;28;20273;-80
2021/09/15 02:39:39;;;;;;;29.47;15.90;;;19.70;99.90;;;;;;5075640;28;20206;-79
2021/09/15 02:42:06;;;;;;;27.17;15.30;;;19.80;99.90;;;;;;5075644;28;20234;-80
2021/09/15 02:44:33;;;;;;;25.40;15.23;;;19.80;99.90;;;;;;5075592;28;20226;-79
2021/09/15 02:47:01;;;;;;;27.17;15.20;;;19.80;99.90;;;;;;5075169;28;20196;-79
2021/09/15 02:49:28;;;;;;;30.30;14.63;;;19.90;99.90;;;;;;5075590;28;20199;-79
2021/09/15 02:51:55;;;;;;;25.50;15.93;;;19.90;99.90;;;;;;5075297;28;20287;-79
2021/09/15 02:54:22;;;;;;;28.23;14.97;;;19.90;99.90;;;;;;5075145;28;20210;-79
2021/09/15 02:56:49;;;;;;;22.30;14.07;;;20.00;99.90;;;;;;5075140;28;20223;-79
2021/09/15 02:59:16;;;;;;;24.53;15.70;;;20.00;99.90;;;;;;5075282;28;20202;-79
2021/09/15 03:01:42;;;;;;;21.27;14.23;;;20.00;99.90;;;;;;5075016;28;20681;-79
2021/09/15 03:04:11;;;;;;;25.60;15.03;;;20.00;99.90;;;;;;5075293;28;20290;-79
2021/09/15 03:06:37;;;;;;;23.87;16.30;;;20.10;99.90;;;;;;5074937;28;20278;-79
2021/09/15 03:09:05;;;;;;;24.57;16.37;;;20.10;99.90;;;;;;5074916;28;20203;-79
2021/09/15 03:11:32;;;;;;;25.23;15.33;;;20.20;99.90;;;;;;5074574;28;20225;-80
2021/09/15 03:13:59;;;;;;;28.37;15.83;;;20.00;99.90;;;;;;5074626;28;20538;-80
2021/09/15 03:16:26;;;;;;;29.43;16.13;;;20.10;99.90;;;;;;5074556;28;20295;-80
2021/09/15 03:18:52;;;;;;;24.13;15.53;;;20.10;99.90;;;;;;5075143;28;20206;-80
2021/09/15 03:21:21;;;;;;;25.27;15.93;;;20.10;99.90;;;;;;5074737;28;20205;-80
2021/09/15 03:23:47;;;;;;;24.70;16.67;;;20.10;99.90;;;;;;5074872;28;20204;-79
2021/09/15 03:26:14;;;;;;;24.70;16.73;;;20.00;99.90;;;;;;5074856;28;20195;-80
2021/09/15 03:28:41;;;;;;;24.77;16.13;;;20.10;99.90;;;;;;5074619;28;20206;-80
2021/09/15 03:31:08;;;;;;;29.87;16.87;;;20.20;99.90;;;;;;5074577;28;20642;-80
2021/09/15 03:33:35;;;;;;;26.93;16.53;;;20.20;99.90;;;;;;5074021;28;20204;-79
2021/09/15 03:36:02;;;;;;;25.03;15.73;;;20.20;99.90;;;;;;5074280;28;20199;-79
2021/09/15 03:38:30;;;;;;;28.83;16.37;;;20.30;99.90;;;;;;5074313;28;20710;-80
2021/09/15 03:40:57;;;;;;;25.17;16.97;;;20.40;99.90;;;;;;5074119;28;20751;-79
2021/09/15 03:43:24;;;;;;;30.43;17.10;;;20.30;99.90;;;;;;5074095;28;20763;-80
2021/09/15 03:45:50;;;;;;;27.70;16.63;;;20.30;99.90;;;;;;5074417;28;20208;-79
2021/09/15 03:48:17;;;;;;;26.37;16.67;;;20.20;99.90;;;;;;5074319;28;20222;-80
2021/09/15 03:50:44;;;;;;;30.20;16.10;;;20.20;99.90;;;;;;5074181;28;20217;-80
2021/09/15 03:53:11;;;;;;;27.93;15.80;;;20.20;99.90;;;;;;5074209;28;20290;-79
2021/09/15 03:55:39;;;;;;;24.53;15.07;;;20.10;99.90;;;;;;5073823;28;20203;-80
2021/09/15 03:58:06;;;;;;;31.03;16.03;;;20.20;99.90;;;;;;5073687;28;20223;-79
2021/09/15 04:00:33;;;;;;;24.87;16.07;;;20.20;99.90;;;;;;5074060;28;20288;-79
2021/09/15 04:03:00;;;;;;;28.33;15.87;;;20.20;99.90;;;;;;5073980;28;20204;-79
2021/09/15 04:05:27;;;;;;;31.43;15.40;;;20.20;99.90;;;;;;5073960;28;20211;-79
2021/09/15 04:07:53;;;;;;;29.57;16.57;;;20.10;99.90;;;;;;5073689;28;20677;-80
2021/09/15 04:10:20;;;;;;;26.93;16.03;;;20.20;99.90;;;;;;5073498;28;20206;-79
2021/09/15 04:12:49;;;;;;;28.10;15.83;;;20.20;99.90;;;;;;5073910;28;20210;-80
2021/09/15 04:15:15;;;;;;;29.60;16.20;;;20.20;99.90;;;;;;5073497;28;20290;-80
2021/09/15 04:17:42;;;;;;;30.10;16.80;;;20.20;99.90;;;;;;5073429;28;20583;-79
2021/09/15 04:20:10;;;;;;;25.27;16.43;;;20.30;99.90;;;;;;5073647;28;20201;-79
2021/09/15 04:22:39;;;;;;;26.37;17.17;;;20.30;99.90;;;;;;5073404;28;20202;-79
2021/09/15 04:33:18;;;;;;;34.10;20.77;;;20.30;99.90;;;;;;5051917;28;20222;-79
2021/09/15 04:35:45;;;;;;;37.53;20.93;;;20.30;99.90;;;;;;5053111;28;20291;-79
2021/09/15 04:38:12;;;;;;;44.53;22.33;;;20.30;99.90;;;;;;5053312;28;20314;-79
2021/09/15 04:40:39;;;;;;;47.67;21.50;;;20.30;99.90;;;;;;5053440;28;20235;-79
2021/09/15 04:43:07;;;;;;;37.63;21.47;;;20.30;99.90;;;;;;5053279;28;20227;-79
2021/09/15 04:45:34;;;;;;;43.47;21.52;;;20.20;99.90;;;;;;5052502;28;20302;-79
2021/09/15 04:48:00;;;;;;;37.90;21.00;;;20.30;99.90;;;;;;5052889;28;20282;-80
2021/09/15 04:50:27;;;;;;;40.75;21.83;;;20.30;99.90;;;;;;5053040;28;20211;-79
2021/09/15 04:52:54;;;;;;;44.23;22.73;;;20.40;99.90;;;;;;5053157;28;20201;-79
2021/09/15 04:55:22;;;;;;;45.27;24.80;;;20.40;99.90;;;;;;5053424;28;20227;-79
2021/09/15 04:57:50;;;;;;;46.30;24.97;;;20.40;99.90;;;;;;5052792;28;20220;-79
2021/09/15 05:00:18;;;;;;;49.70;25.10;;;20.30;99.90;;;;;;5052972;28;20295;-79
2021/09/15 05:02:45;;;;;;;47.50;25.50;;;20.30;99.90;;;;;;5052856;28;20282;-80
2021/09/15 05:05:12;;;;;;;48.33;25.00;;;20.30;99.90;;;;;;5059501;28;20278;-80
2021/09/15 05:07:39;;;;;;;58.97;25.50;;;20.30;99.90;;;;;;5084055;28;20676;-80
2021/09/15 05:10:07;;;;;;;56.27;27.23;;;20.30;99.90;;;;;;5073276;28;20230;-80
2021/09/15 05:12:33;;;;;;;51.20;26.17;;;20.30;99.90;;;;;;5072062;28;20205;-82
2021/09/15 05:15:00;;;;;;;49.27;26.20;;;20.20;99.90;;;;;;5071854;28;20203;-81
2021/09/15 05:17:28;;;;;;;55.17;29.00;;;20.20;99.90;;;;;;5072827;28;20223;-81
2021/09/15 05:19:55;;;;;;;61.17;30.73;;;20.20;99.90;;;;;;5070432;28;20699;-80
2021/09/15 05:22:22;;;;;;;65.43;32.30;;;20.20;99.90;;;;;;5068410;28;20282;-80
2021/09/15 05:24:49;;;;;;;66.60;33.80;;;20.20;99.90;;;;;;5071898;28;20285;-81
2021/09/15 05:27:16;;;;;;;76.43;33.03;;;20.10;99.90;;;;;;5071922;28;20629;-80
2021/09/15 05:29:45;;;;;;;70.57;33.17;;;20.00;99.90;;;;;;5070254;28;20625;-80
2021/09/15 05:32:12;;;;;;;74.23;34.67;;;20.00;99.90;;;;;;5071106;28;20212;-81
2021/09/15 05:34:40;;;;;;;72.03;33.87;;;20.00;99.90;;;;;;5071526;28;20212;-82
2021/09/15 05:37:07;;;;;;;71.00;33.57;;;20.00;99.90;;;;;;5071715;28;20624;-81
2021/09/15 05:39:34;;;;;;;82.27;35.47;;;20.00;99.90;;;;;;5070058;28;20217;-80
2021/09/15 05:42:01;;;;;;;72.97;34.50;;;20.00;99.90;;;;;;5069907;28;20329;-80
2021/09/15 05:44:28;;;;;;;80.63;35.47;;;20.00;99.90;;;;;;5063245;28;20295;-80
2021/09/15 05:46:55;;;;;;;73.47;34.90;;;19.90;99.90;;;;;;5064954;28;20212;-80
2021/09/15 05:49:22;;;;;;;77.07;34.73;;;19.90;99.90;;;;;;5057004;28;20304;-81
2021/09/15 05:51:50;;;;;;;81.93;36.20;;;19.90;99.90;;;;;;5061963;28;20199;-81
2021/09/15 05:54:17;;;;;;;80.97;36.63;;;20.00;99.90;;;;;;5057596;28;20196;-81
2021/09/15 05:56:44;;;;;;;93.80;37.47;;;19.80;99.90;;;;;;5072484;28;20378;-80
2021/09/15 05:59:10;;;;;;;105.70;42.20;;;19.90;99.90;;;;;;5075111;28;20219;-80
2021/09/15 06:01:37;;;;;;;100.33;40.07;;;19.80;99.90;;;;;;5074000;28;20199;-80
2021/09/15 06:04:04;;;;;;;114.97;45.70;;;19.80;99.90;;;;;;5075735;28;20295;-80
2021/09/15 06:06:31;;;;;;;112.63;44.23;;;19.80;99.90;;;;;;5075832;28;20291;-81
2021/09/15 06:09:00;;;;;;;116.30;45.27;;;19.70;99.90;;;;;;5074809;28;20200;-80
2021/09/15 06:11:27;;;;;;;126.60;49.00;;;19.70;99.90;;;;;;5075438;28;20195;-81
2021/09/15 06:13:55;;;;;;;121.67;47.53;;;19.80;99.90;;;;;;5075516;28;20657;-81
2021/09/15 06:16:21;;;;;;;128.77;49.67;;;19.70;99.90;;;;;;5075836;28;20276;-81
2021/09/15 06:18:48;;;;;;;125.93;49.83;;;19.70;99.90;;;;;;5075584;28;20310;-81
2021/09/15 06:21:16;;;;;;;145.90;52.80;;;19.60;99.90;;;;;;5075351;28;20195;-77
2021/09/15 06:23:43;;;;;;;144.17;52.83;;;19.50;99.90;;;;;;5075643;28;20210;-80
2021/09/15 06:26:11;;;;;;;139.13;52.63;;;19.50;99.90;;;;;;5074969;28;20218;-80
2021/09/15 06:28:39;;;;;;;145.87;54.97;;;19.60;99.90;;;;;;5074951;28;20192;-81
2021/09/15 06:31:06;;;;;;;143.37;53.17;;;19.70;99.90;;;;;;5075150;28;20210;-81
2021/09/15 06:33:33;;;;;;;149.37;54.80;;;19.80;99.90;;;;;;5075219;28;20307;-81
2021/09/15 06:36:00;;;;;;;145.20;53.13;;;19.80;99.90;;;;;;5074508;28;20294;-81
2021/09/15 06:38:27;;;;;;;145.97;54.97;;;19.80;99.90;;;;;;5073790;28;20643;-81
2021/09/15 06:40:54;;;;;;;149.37;55.17;;;19.70;99.90;;;;;;5075342;28;20203;-82
2021/09/15 06:43:22;;;;;;;140.17;55.33;;;19.80;99.90;;;;;;5075311;28;20199;-81
2021/09/15 06:45:49;;;;;;;151.77;53.27;;;19.80;99.90;;;;;;5074483;28;20219;-82
2021/09/15 06:48:17;;;;;;;148.77;54.67;;;19.70;99.90;;;;;;5075034;28;20277;-81
2021/09/15 06:50:44;;;;;;;147.63;53.93;;;19.60;99.90;;;;;;5074950;28;20212;-82
2021/09/15 06:53:11;;;;;;;147.67;56.63;;;19.50;99.90;;;;;;5074659;28;20203;-81
2021/09/15 06:55:38;;;;;;;155.93;56.47;;;19.50;99.90;;;;;;5074397;28;20195;-81
2021/09/15 06:58:05;;;;;;;155.27;58.57;;;19.50;99.90;;;;;;5074487;28;20318;-81
2021/09/15 07:00:33;;;;;;;157.53;60.33;;;19.60;99.90;;;;;;5074975;28;20207;-82
2021/09/15 07:03:00;;;;;;;151.67;60.70;;;19.50;99.90;;;;;;5074893;28;20230;-82
2021/09/15 07:05:27;;;;;;;158.20;60.23;;;19.50;99.90;;;;;;5074506;28;20282;-80
2021/09/15 07:07:55;;;;;;;160.07;61.53;;;19.40;99.90;;;;;;5073434;28;20287;-82
2021/09/15 07:10:22;;;;;;;166.17;62.67;;;19.30;99.90;;;;;;5074650;28;20249;-82
2021/09/15 07:12:49;;;;;;;162.87;61.50;;;19.30;99.90;;;;;;5072619;28;20226;-82
2021/09/15 07:15:17;;;;;;;157.97;59.17;;;19.30;99.90;;;;;;5069702;28;20552;-81
2021/09/15 07:17:45;;;;;;;163.47;60.07;;;19.40;99.90;;;;;;5072482;28;20775;-82
2021/09/15 07:20:13;;;;;;;144.73;58.27;;;19.50;99.90;;;;;;5073821;28;20578;-82
2021/09/15 07:22:40;;;;;;;140.97;58.80;;;19.60;99.90;;;;;;5073972;28;20253;-81
2021/09/15 07:25:08;;;;;;;130.13;57.17;;;19.80;99.90;;;;;;5073952;28;20196;-82
2021/09/15 07:27:35;;;;;;;127.67;54.90;;;19.80;99.90;;;;;;5073697;28;20207;-82
2021/09/15 07:30:02;;;;;;;113.23;51.90;;;20.00;99.90;;;;;;5074004;28;20306;-82
2021/09/15 07:32:29;;;;;;;105.27;52.13;;;20.10;99.90;;;;;;5074115;28;20998;-83
2021/09/15 07:34:57;;;;;;;99.30;50.20;;;20.20;99.90;;;;;;5073720;28;20250;-81
2021/09/15 07:37:24;;;;;;;99.17;50.53;;;20.20;99.90;;;;;;5073858;28;20279;-82
2021/09/15 07:39:53;;;;;;;90.20;47.33;;;20.20;99.90;;;;;;5063906;28;20216;-82
2021/09/15 07:42:20;;;;;;;85.97;45.67;;;20.20;99.90;;;;;;5065852;28;20290;-82
2021/09/15 07:44:47;;;;;;;89.77;47.53;;;20.30;99.90;;;;;;5073008;28;20227;-82
2021/09/15 07:47:16;;;;;;;87.20;46.20;;;20.50;99.90;;;;;;5073485;28;20230;-81
2021/09/15 07:49:43;;;;;;;84.53;45.67;;;20.50;99.90;;;;;;5072294;28;20206;-83
2021/09/15 07:52:12;;;;;;;87.07;45.10;;;20.50;99.90;;;;;;5073664;28;20531;-81
2021/09/15 07:54:38;;;;;;;86.07;45.43;;;20.50;99.90;;;;;;5073537;28;20210;-82
2021/09/15 07:57:05;;;;;;;83.20;46.63;;;20.60;99.90;;;;;;5065680;28;20258;-82
2021/09/15 07:59:32;;;;;;;77.28;43.90;;;20.70;99.90;;;;;;5063806;28;20245;-82
2021/09/15 08:01:59;;;;;;;81.03;42.95;;;20.70;99.90;;;;;;5071620;28;20283;-82
2021/09/15 08:04:27;;;;;;;73.67;42.63;;;21.00;99.90;;;;;;5073372;28;20221;-83
2021/09/15 08:06:53;;;;;;;72.20;42.72;;;21.00;99.90;;;;;;5070699;28;20291;-83
2021/09/15 08:09:22;;;;;;;66.60;40.92;;;21.10;99.90;;;;;;5079970;28;20731;-82
2021/09/15 08:11:48;;;;;;;73.07;42.70;;;21.40;99.90;;;;;;5067824;28;20781;-78
2021/09/15 08:14:15;;;;;;;67.55;40.97;;;21.60;99.90;;;;;;5074526;28;20697;-80
2021/09/15 08:16:42;;;;;;;66.50;39.20;;;21.80;99.90;;;;;;5070124;28;20730;-81
2021/09/15 08:19:09;;;;;;;61.22;37.30;;;21.70;99.90;;;;;;5074901;28;20334;-80
2021/09/15 08:21:36;;;;;;;61.03;38.83;;;21.90;99.90;;;;;;5076411;28;20221;-80
2021/09/15 08:24:03;;;;;;;57.88;37.30;;;22.00;99.90;;;;;;5076901;28;20276;-81
2021/09/15 08:26:32;;;;;;;56.42;35.83;;;21.80;99.90;;;;;;5077971;28;20202;-79
2021/09/15 08:28:59;;;;;;;52.17;35.28;;;21.70;99.90;;;;;;5075465;28;20208;-80
2021/09/15 08:31:25;;;;;;;58.92;36.03;;;21.70;99.90;;;;;;5080409;28;20285;-80
2021/09/15 08:33:52;;;;;;;58.53;36.17;;;21.60;99.90;;;;;;5081983;28;20736;-80
2021/09/15 08:36:19;;;;;;;58.42;36.40;;;21.20;99.90;;;;;;5078987;28;20686;-80
2021/09/15 08:38:46;;;;;;;64.03;37.53;;;21.10;99.90;;;;;;5081547;28;20747;-80
2021/09/15 08:41:14;;;;;;;64.47;38.73;;;20.90;99.90;;;;;;5074556;28;20195;-80
2021/09/15 08:43:43;;;;;;;65.87;38.83;;;20.60;99.90;;;;;;5075676;28;20199;-79
2021/09/15 08:46:13;;;;;;;68.27;38.13;;;20.40;99.90;;;;;;5070862;28;20221;-80
2021/09/15 08:48:41;;;;;;;63.72;36.85;;;20.40;99.90;;;;;;5077013;28;20206;-80
2021/09/15 08:51:12;;;;;;;60.70;35.53;;;20.60;99.90;;;;;;5081218;28;20234;-80
2021/09/15 08:53:39;;;;;;;58.23;35.80;;;20.60;99.90;;;;;;5075716;28;20472;-80
2021/09/15 08:56:06;;;;;;;51.37;32.97;;;20.80;99.90;;;;;;5079406;28;20242;-79
2021/09/15 08:58:33;;;;;;;53.92;33.20;;;21.30;99.90;;;;;;5077774;28;20216;-80
2021/09/15 09:01:14;;;;;;;51.50;31.80;;;21.60;99.90;;;;;;5081604;28;20201;-80
2021/09/15 09:03:41;;;;;;;46.90;30.02;;;22.00;99.90;;;;;;5075402;28;20206;-80
2021/09/15 09:06:09;;;;;;;43.53;29.38;;;22.40;99.90;;;;;;5073305;28;20648;-80
2021/09/15 09:08:40;;;;;;;44.25;28.77;;;22.70;99.90;;;;;;5074193;28;20204;-80
2021/09/15 09:11:07;;;;;;;38.75;27.95;;;22.70;99.90;;;;;;5082702;28;20195;-81
2021/09/15 09:13:35;;;;;;;42.63;28.88;;;22.90;99.90;;;;;;5078868;28;20203;-80
2021/09/15 09:16:03;;;;;;;40.17;28.70;;;23.20;99.90;;;;;;5076715;28;20199;-80
2021/09/15 09:18:31;;;;;;;44.50;30.92;;;23.20;99.90;;;;;;5076545;28;20230;-80
2021/09/15 09:20:58;;;;;;;50.20;33.67;;;23.40;99.90;;;;;;5070874;28;20209;-80
2021/09/15 09:23:25;;;;;;;51.92;34.40;;;23.20;99.90;;;;;;5056961;28;20685;-79
2021/09/15 09:25:54;;;;;;;54.75;36.80;;;23.20;99.90;;;;;;5069303;28;20290;-79
2021/09/15 09:28:28;;;;;;;54.35;36.50;;;23.00;99.90;;;;;;5071922;28;20203;-80
2021/09/15 09:30:56;;;;;;;56.97;37.75;;;22.40;99.90;;;;;;5074295;28;20203;-79
2021/09/15 09:33:23;;;;;;;59.55;38.35;;;22.00;99.90;;;;;;5071971;28;20217;-80
2021/09/15 09:35:53;;;;;;;58.55;37.55;;;21.70;99.90;;;;;;5080524;28;20202;-79
2021/09/15 09:38:30;;;;;;;61.45;38.75;;;21.40;99.90;;;;;;5074450;28;20200;-78
2021/09/15 09:41:06;;;;;;;57.22;36.83;;;21.30;99.90;;;;;;5060732;28;20205;-78
2021/09/15 09:43:35;;;;;;;55.25;35.05;;;21.70;99.90;;;;;;5070841;28;20290;-78
2021/09/15 09:46:02;;;;;;;46.50;32.85;;;22.50;99.90;;;;;;5074837;28;20210;-78
2021/09/15 09:48:31;;;;;;;43.40;30.92;;;22.70;99.90;;;;;;5074209;28;20242;-78
2021/09/15 09:51:00;;;;;;;42.45;30.90;;;22.70;99.90;;;;;;5055793;28;20752;-78
2021/09/15 09:53:27;;;;;;;41.92;29.90;;;23.10;99.90;;;;;;5058356;28;20231;-78
2021/09/15 09:55:57;;;;;;;40.15;29.65;;;22.60;99.90;;;;;;5062734;28;20200;-79
2021/09/15 09:58:26;;;;;;;47.35;30.73;;;22.00;99.90;;;;;;5072348;28;20659;-78
2021/09/15 10:00:55;;;;;;;41.05;29.77;;;22.20;99.90;;;;;;5073069;28;20639;-78
2021/09/15 10:03:22;;;;;;;39.47;28.27;;;23.30;99.90;;;;;;5072750;28;20203;-79
2021/09/15 10:05:49;;;;;;;38.63;28.85;;;23.20;99.90;;;;;;5073986;28;20211;-78
2021/09/15 10:08:20;;;;;;;41.08;30.70;;;22.70;99.90;;;;;;5074219;28;20215;-78
2021/09/15 10:10:50;;;;;;;37.28;27.75;;;22.10;99.90;;;;;;5069811;28;20206;-79
2021/09/15 10:13:17;;;;;;;38.92;27.70;;;22.20;99.90;;;;;;5074214;28;20289;-78
2021/09/15 10:15:47;;;;;;;35.78;26.15;;;22.30;99.90;;;;;;5073332;28;20684;-78
2021/09/15 10:18:15;;;;;;;31.58;24.48;;;22.40;99.90;;;;;;5073462;28;20254;-78
2021/09/15 10:20:47;;;;;;;31.45;23.23;;;22.70;99.90;;;;;;5069538;28;20242;-79
2021/09/15 10:23:35;;;;;;;29.02;21.45;;;23.00;99.90;;;;;;5069900;28;20613;-78
2021/09/15 10:26:40;;;;;;;29.80;21.17;;;23.40;99.90;;;;;;5072455;28;20235;-78
2021/09/15 10:29:26;;;;;;;22.73;18.63;;;23.60;99.90;;;;;;5068134;28;20719;-78
2021/09/15 10:32:02;;;;;;;23.88;18.13;;;24.10;99.90;;;;;;5072219;28;20264;-78
2021/09/15 10:34:52;;;;;;;20.38;14.55;;;24.40;99.90;;;;;;5071841;28;20286;-78
2021/09/15 10:37:53;;;;;;;17.10;14.05;;;24.60;99.90;;;;;;5070958;28;20211;-78
2021/09/15 10:40:32;;;;;;;21.80;15.65;;;24.40;99.90;;;;;;5068558;28;20247;-79
2021/09/15 10:43:00;;;;;;;20.42;16.20;;;24.40;99.90;;;;;;5072540;28;20633;-78
2021/09/15 10:45:29;;;;;;;20.80;15.80;;;24.30;99.90;;;;;;5073928;28;20199;-78
2021/09/15 10:47:59;;;;;;;15.50;12.55;;;24.50;99.90;;;;;;5073625;28;20643;-78
2021/09/15 10:50:52;;;;;;;9.00;7.97;;;24.80;99.90;;;;;;5073917;28;20650;-79
2021/09/15 10:53:22;;;;;;;10.80;7.78;;;24.90;99.90;;;;;;5073719;28;20642;-79
2021/09/15 10:55:53;;;;;;;10.80;6.82;;;25.50;99.90;;;;;;5073990;28;20215;-79
2021/09/15 10:58:22;;;;;;;8.80;6.80;;;25.90;99.90;;;;;;5073996;28;20302;-79
2021/09/15 11:00:51;;;;;;;6.43;5.82;;;26.50;99.90;;;;;;5073249;28;20226;-78
2021/09/15 11:03:24;;;;;;;8.00;5.60;;;27.60;99.90;;;;;;5073412;28;20993;-78
2021/09/15 11:05:51;;;;;;;7.07;5.75;;;28.10;99.90;;;;;;5073292;28;20226;-78
2021/09/15 11:08:41;;;;;;;7.93;5.80;;;28.80;99.90;;;;;;5066801;28;20304;-78
2021/09/15 11:11:11;;;;;;;5.85;5.25;;;28.20;99.90;;;;;;5069851;28;20218;-79
2021/09/15 11:13:54;;;;;;;7.22;5.95;;;27.40;99.90;;;;;;5072651;28;20219;-80
2021/09/15 11:16:27;;;;;;;8.13;5.75;;;25.80;99.90;;;;;;5073258;28;20294;-79
2021/09/15 11:18:55;;;;;;;10.05;7.90;;;25.20;99.90;;;;;;5073050;28;20222;-80
2021/09/15 11:21:22;;;;;;;13.00;8.93;;;24.60;99.90;;;;;;5073273;28;20664;-78
2021/09/15 11:23:54;;;;;;;13.82;12.43;;;23.80;99.90;;;;;;5073579;28;20257;-78
2021/09/15 11:26:37;;;;;;;14.68;12.88;;;23.50;99.90;;;;;;5068968;28;20196;-78
2021/09/15 11:29:04;;;;;;;16.90;13.75;;;23.80;99.90;;;;;;5070329;28;20451;-76
2021/09/15 11:31:33;;;;;;;15.15;12.73;;;23.70;99.90;;;;;;5073310;28;20227;-78
2021/09/15 11:34:05;;;;;;;16.77;12.85;;;24.10;99.90;;;;;;5072346;28;20560;-78
2021/09/15 11:36:32;;;;;;;15.23;12.73;;;24.70;99.90;;;;;;5071771;28;20827;-79
2021/09/15 11:38:59;;;;;;;15.52;12.95;;;25.10;99.90;;;;;;5072447;28;20310;-79
2021/09/15 11:41:27;;;;;;;16.48;13.43;;;25.00;99.90;;;;;;5071884;28;20202;-79
2021/09/15 11:43:55;;;;;;;17.23;13.02;;;24.80;99.90;;;;;;5067650;28;20195;-79
2021/09/15 11:46:32;;;;;;;14.00;11.50;;;24.50;99.90;;;;;;5072051;28;20226;-78
2021/09/15 11:48:59;;;;;;;14.63;10.90;;;24.40;99.90;;;;;;5069354;28;20536;-79
2021/09/15 11:51:27;;;;;;;13.20;9.77;;;24.40;99.90;;;;;;5067575;28;20303;-77
2021/09/15 11:53:57;;;;;;;12.25;10.15;;;24.10;99.90;;;;;;5068956;28;20290;-79
2021/09/15 11:56:30;;;;;;;12.88;10.65;;;24.00;99.90;;;;;;5072647;28;20212;-79
2021/09/15 11:58:58;;;;;;;12.25;9.45;;;24.40;99.90;;;;;;5072602;28;20199;-79
2021/09/15 12:01:27;;;;;;;9.85;6.72;;;24.70;99.90;;;;;;5066129;28;20214;-79
2021/09/15 12:03:55;;;;;;;9.38;6.35;;;24.20;99.90;;;;;;5066526;28;20203;-78
2021/09/15 12:06:22;;;;;;;10.40;7.15;;;23.90;99.90;;;;;;5067107;28;20194;-80
2021/09/15 12:08:50;;;;;;;13.43;7.47;;;24.00;99.90;;;;;;5070640;28;20195;-79
2021/09/15 12:11:18;;;;;;;8.95;7.50;;;24.10;99.90;;;;;;5071136;28;20180;-80
2021/09/15 12:13:45;;;;;;;8.60;7.00;;;24.10;99.90;;;;;;5066989;28;20283;-80
2021/09/15 12:16:29;;;;;;;8.93;7.57;;;24.20;99.90;;;;;;5066560;28;20282;-80
2021/09/15 12:18:56;;;;;;;8.90;6.03;;;24.10;99.90;;;;;;5071445;28;20229;-80
2021/09/15 12:21:25;;;;;;;8.85;4.60;;;24.00;99.90;;;;;;5071116;28;20219;-80
2021/09/15 12:24:01;;;;;;;8.15;5.03;;;23.70;99.90;;;;;;5070409;28;20274;-80
2021/09/15 12:26:29;;;;;;;5.75;3.92;;;24.00;99.90;;;;;;5061530;28;20615;-79
2021/09/15 12:29:04;;;;;;;7.88;3.50;;;24.10;99.90;;;;;;5071412;28;20187;-80
2021/09/15 12:31:45;;;;;;;3.65;3.35;;;24.00;99.90;;;;;;5067281;28;20270;-80
2021/09/15 12:34:13;;;;;;;6.63;3.30;;;23.90;99.90;;;;;;5073907;28;20239;-81
2021/09/15 12:36:41;;;;;;;3.90;2.50;;;24.20;99.90;;;;;;5073171;28;20748;-79
2021/09/15 12:39:14;;;;;;;6.38;2.72;;;24.50;99.90;;;;;;5070370;28;20299;-79
2021/09/15 12:41:52;;;;;;;8.93;2.90;;;24.80;99.90;;;;;;5062648;28;20202;-81
2021/09/15 12:44:24;;;;;;;4.78;2.20;;;24.40;99.90;;;;;;5071024;28;20193;-80